Time;durP1;ratioP1;P1;durP2;ratioP2;P2;SDS_P1;SDS_P2;PMS_P1;PMS_P2;Temp;Humidity;BMP_temperature;BMP_pressure;BME280_temperature;BME280_humidity;BME280_pressure;Samples;Min_cycle;Max_cycle;Signal;HPM_P1;HPM_P2
2022/03/19 00:02:18;;;;;;;;;9.67;8.67;;;;;10.38;37.23;103073.16;5000740;28;45394;-70
2022/03/19 00:04:44;;;;;;;;;5.33;4.00;;;;;10.45;36.94;103077.19;5018492;28;45475;-70
2022/03/19 00:07:09;;;;;;;;;4.67;4.00;;;;;10.36;37.27;103075.03;5017613;28;46963;-72
2022/03/19 00:09:35;;;;;;;;;7.00;4.67;;;;;10.33;37.13;103080.53;5018268;28;45542;-71
2022/03/19 00:12:00;;;;;;;;;6.67;4.33;;;;;10.12;37.00;103049.78;5000174;28;45385;-70
2022/03/19 00:14:26;;;;;;;;;10.00;6.67;;;;;10.16;37.41;103069.94;5000327;28;45254;-70
2022/03/19 00:16:52;;;;;;;;;9.00;8.00;;;;;10.19;37.41;103083.91;5017939;28;46095;-70
2022/03/19 00:19:18;;;;;;;;;4.67;4.67;;;;;10.04;37.42;103069.69;5017910;28;45345;-69
2022/03/19 00:21:44;;;;;;;;;7.67;6.67;;;;;10.00;37.61;103068.09;5018034;28;45463;-71
2022/03/19 00:24:09;;;;;;;;;5.67;5.67;;;;;10.06;37.53;103086.41;5018422;28;45349;-69
2022/03/19 00:26:35;;;;;;;;;6.67;5.67;;;;;9.99;37.77;103070.84;5000069;28;46633;-70
2022/03/19 00:29:01;;;;;;;;;5.67;5.67;;;;;10.04;37.72;103079.47;5017854;28;45247;-71
2022/03/19 00:31:26;;;;;;;;;6.00;5.00;;;;;9.76;37.71;103032.25;5018117;28;45278;-71
2022/03/19 00:33:52;;;;;;;;;6.33;6.00;;;;;9.98;37.91;103085.06;5018266;28;45300;-71
2022/03/19 00:36:17;;;;;;;;;5.00;5.00;;;;;9.84;38.18;103064.59;4999556;28;48172;-69
2022/03/19 00:38:42;;;;;;;;;7.00;5.00;;;;;9.41;37.94;103000.50;5017587;28;45434;-69
2022/03/19 00:41:08;;;;;;;;;5.00;5.00;;;;;9.95;38.41;103095.88;4999733;28;45492;-70
2022/03/19 00:43:34;;;;;;;;;3.33;3.33;;;;;9.89;38.28;103081.13;5017848;28;45603;-72
2022/03/19 00:45:59;;;;;;;;;5.00;3.67;;;;;9.91;38.03;103084.56;5018604;28;45333;-70
2022/03/19 00:48:25;;;;;;;;;5.00;4.00;;;;;10.01;37.95;103096.44;4992270;28;45367;-70
2022/03/19 00:50:50;;;;;;;;;5.67;5.67;;;;;10.05;37.65;103084.69;5010485;28;45707;-71
2022/03/19 00:53:15;;;;;;;;;6.67;5.67;;;;;9.86;38.13;103060.03;5017804;28;45476;-69
2022/03/19 00:55:41;;;;;;;;;9.67;8.00;;;;;9.98;37.99;103088.59;5016045;28;48115;-69
2022/03/19 00:58:06;;;;;;;;;5.00;5.00;;;;;9.66;38.46;103036.34;5017339;28;45474;-70
2022/03/19 01:00:32;;;;;;;;;4.67;4.67;;;;;9.95;37.83;103083.44;5017597;28;45464;-69
2022/03/19 01:02:57;;;;;;;;;6.33;4.00;;;;;9.72;37.96;103051.94;5017692;28;45427;-69
2022/03/19 01:05:24;;;;;;;;;6.67;5.00;;;;;9.65;38.30;103056.75;4998909;28;47370;-70
2022/03/19 01:07:54;;;;;;;;;8.67;7.00;;;;;9.83;38.26;103069.97;5016467;28;45384;-71
2022/03/19 01:10:22;;;;;;;;;1.33;1.33;;;;;9.85;38.16;103071.63;5017440;28;45595;-70
2022/03/19 01:12:49;;;;;;;;;5.33;4.67;;;;;9.85;38.15;103066.31;5017223;28;45537;-71
2022/03/19 01:15:16;;;;;;;;;6.00;4.67;;;;;9.87;37.75;103072.38;5017216;28;46831;-70
2022/03/19 01:17:42;;;;;;;;;3.00;3.00;;;;;9.89;38.25;103078.47;4998789;28;45934;-69
2022/03/19 01:20:10;;;;;;;;;4.33;4.33;;;;;9.87;38.22;103061.75;4999559;28;45588;-71
2022/03/19 01:22:37;;;;;;;;;5.33;4.33;;;;;9.87;38.38;103067.06;4999382;28;45619;-70
2022/03/19 01:25:05;;;;;;;;;5.00;5.00;;;;;9.82;38.06;103055.00;5016859;28;46084;-73
2022/03/19 01:27:31;;;;;;;;;1.33;0.33;;;;;9.84;37.74;103064.59;4998805;28;45949;-69
2022/03/19 01:29:59;;;;;;;;;5.67;4.67;;;;;9.81;38.12;103056.78;5017019;28;45489;-70
2022/03/19 01:32:24;;;;;;;;;5.00;5.00;;;;;9.71;38.59;103055.56;5017130;28;45235;-71
2022/03/19 01:34:49;;;;;;;;;4.67;3.00;;;;;9.70;38.18;103049.38;5016792;28;45468;-70
2022/03/19 01:37:15;;;;;;;;;6.33;3.00;;;;;9.62;38.26;103037.47;5016625;28;45290;-71
2022/03/19 01:39:41;;;;;;;;;7.00;5.67;;;;;9.49;38.25;103023.09;4999129;28;45487;-70
2022/03/19 01:42:06;;;;;;;;;5.33;4.00;;;;;9.59;38.38;103048.22;5015674;28;45472;-70
2022/03/19 01:44:32;;;;;;;;;4.67;4.00;;;;;9.67;38.53;103059.31;4998887;28;48680;-71
2022/03/19 01:47:03;;;;;;;;;6.00;4.67;;;;;9.58;38.43;103038.53;5016702;28;45372;-71
2022/03/19 01:49:30;;;;;;;;;4.00;4.00;;;;;9.71;38.36;103055.56;4999014;28;45628;-69
2022/03/19 01:51:57;;;;;;;;;3.67;3.33;;;;;9.74;38.27;103055.38;5017022;28;45578;-69
2022/03/19 01:54:25;;;;;;;;;6.00;4.33;;;;;9.67;38.37;103064.63;5016708;28;46374;-72
2022/03/19 01:56:52;;;;;;;;;5.33;4.00;;;;;9.71;38.00;103055.56;5016394;28;45368;-70
2022/03/19 01:59:21;;;;;;;;;6.33;5.00;;;;;9.69;37.93;103047.66;5016569;28;45159;-70
2022/03/19 02:01:47;;;;;;;;;3.33;3.33;;;;;9.66;38.52;103047.84;5015388;28;45479;-71
2022/03/19 02:04:12;;;;;;;;;4.67;4.67;;;;;9.61;38.62;103035.72;4998568;28;48359;-69
2022/03/19 02:06:40;;;;;;;;;5.00;4.00;;;;;9.63;38.41;103033.88;4998419;28;45360;-71
2022/03/19 02:09:05;;;;;;;;;8.00;6.00;;;;;9.66;38.59;103049.63;4998706;28;45427;-68
2022/03/19 02:11:31;;;;;;;;;5.33;5.33;;;;;9.60;38.55;103036.66;4998874;28;45223;-70
2022/03/19 02:13:56;;;;;;;;;7.33;6.00;;;;;9.58;38.51;103036.75;4998596;28;48414;-70
2022/03/19 02:16:21;;;;;;;;;6.00;6.00;;;;;9.50;38.82;103027.47;5016491;28;45358;-69
2022/03/19 02:18:47;;;;;;;;;6.00;6.00;;;;;9.31;39.12;103009.84;5017664;28;45770;-70
2022/03/19 02:21:12;;;;;;;;;7.00;5.00;;;;;9.63;38.80;103033.88;5020018;28;45403;-69
2022/03/19 02:26:22;;;;;;;;;5.00;5.00;;;;;9.63;38.78;103037.38;5019938;28;45258;-69
2022/03/19 02:28:47;;;;;;;;;5.00;5.00;;;;;9.44;39.50;103024.22;5018374;28;45422;-71
2022/03/19 02:31:12;;;;;;;;;4.33;1.67;;;;;8.89;39.09;102927.19;5020038;28;45693;-69
2022/03/19 02:33:38;;;;;;;;;9.00;8.33;;;;;9.28;39.62;103004.72;5019498;28;46321;-69
2022/03/19 02:36:03;;;;;;;;;9.00;6.67;;;;;8.99;39.65;102955.78;5001777;28;45349;-71
2022/03/19 02:38:29;;;;;;;;;8.00;7.00;;;;;9.33;39.71;103018.59;5019839;28;45217;-70
2022/03/19 02:40:54;;;;;;;;;11.33;8.00;;;;;9.15;39.77;102987.69;5019880;28;45516;-71
2022/03/19 02:43:19;;;;;;;;;8.33;6.00;;;;;9.26;40.08;103003.09;5019097;28;45238;-69
2022/03/19 02:45:48;;;;;;;;;10.33;8.33;;;;;9.32;39.87;103010.72;5019450;28;45658;-70
2022/03/19 02:48:13;;;;;;;;;10.00;9.00;;;;;9.22;39.99;103005.03;5001418;28;45452;-71
2022/03/19 02:50:39;;;;;;;;;11.33;8.00;;;;;9.24;40.13;102995.22;5019469;28;45379;-72
2022/03/19 02:53:07;;;;;;;;;6.33;5.33;;;;;9.26;40.34;102995.13;5001412;28;47596;-71
2022/03/19 02:55:38;;;;;;;;;6.67;6.00;;;;;8.69;40.44;102915.81;5019429;28;45533;-69
2022/03/19 02:58:06;;;;;;;;;14.67;10.00;;;;;8.98;40.75;102969.16;5019247;28;45561;-70
2022/03/19 03:00:31;;;;;;;;;9.00;8.00;;;;;9.02;41.02;102998.13;5001978;28;45521;-71
2022/03/19 03:02:57;;;;;;;;;11.00;9.33;;;;;8.94;41.12;102988.81;5019634;28;45396;-71
2022/03/19 03:05:22;;;;;;;;;11.00;7.67;;;;;8.81;41.37;102991.25;5001405;28;45378;-70
2022/03/19 03:07:48;;;;;;;;;7.00;5.00;;;;;8.69;42.11;102971.50;5019703;28;45196;-71
2022/03/19 03:10:15;;;;;;;;;9.67;8.00;;;;;8.69;42.41;102981.25;5001578;28;45267;-70
2022/03/19 03:12:41;;;;;;;;;11.00;10.00;;;;;8.60;42.33;102958.69;5019078;28;46319;-70
2022/03/19 03:15:07;;;;;;;;;7.67;7.67;;;;;8.68;42.34;102968.94;5015308;28;45534;-72
2022/03/19 03:17:33;;;;;;;;;9.67;8.00;;;;;8.72;42.25;102973.13;5009251;28;45563;-71
2022/03/19 03:19:59;;;;;;;;;9.00;9.00;;;;;8.66;41.86;102946.94;5001347;28;45251;-71
2022/03/19 03:22:25;;;;;;;;;9.33;9.33;;;;;8.63;42.42;102947.09;5018747;28;46285;-70
2022/03/19 03:24:50;;;;;;;;;13.00;8.00;;;;;8.77;42.32;102955.19;5019066;28;45298;-70
2022/03/19 03:27:16;;;;;;;;;6.67;6.33;;;;;8.83;42.23;102969.03;5000982;28;45324;-70
2022/03/19 03:29:41;;;;;;;;;12.00;10.33;;;;;8.88;41.95;102960.81;5018672;28;45629;-71
2022/03/19 03:32:09;;;;;;;;;13.00;9.33;;;;;9.05;41.85;102978.53;5018672;28;45873;-70
2022/03/19 03:34:35;;;;;;;;;11.00;9.33;;;;;8.94;41.54;102949.88;5018761;28;45359;-71
2022/03/19 03:37:03;;;;;;;;;13.67;13.33;;;;;9.09;42.04;102972.13;5008690;28;45498;-70
2022/03/19 03:39:29;;;;;;;;;12.00;11.00;;;;;9.03;41.89;102975.94;4981575;28;45416;-70
2022/03/19 03:41:54;;;;;;;;;14.67;11.67;;;;;9.00;41.75;102967.25;4981057;28;47611;-71
2022/03/19 03:44:19;;;;;;;;;14.67;13.00;;;;;8.97;41.92;102951.50;4998808;28;45759;-71
2022/03/19 03:46:45;;;;;;;;;14.33;11.00;;;;;8.93;42.17;102947.31;4999046;28;45561;-70
2022/03/19 03:49:14;;;;;;;;;6.33;5.67;;;;;7.72;42.30;102746.72;4999067;28;45239;-71
2022/03/19 03:51:40;;;;;;;;;17.67;15.33;;;;;8.95;42.74;102971.97;4980893;28;47813;-70
2022/03/19 03:54:07;;;;;;;;;9.33;9.33;;;;;8.95;42.76;102969.31;4980745;28;46147;-69
2022/03/19 03:56:32;;;;;;;;;12.67;12.67;;;;;8.90;42.88;102969.56;4981075;28;45416;-71
2022/03/19 03:58:58;;;;;;;;;11.67;10.33;;;;;8.79;42.84;102955.97;4998724;28;45321;-71
2022/03/19 04:01:23;;;;;;;;;16.00;13.00;;;;;8.70;43.32;102954.66;4980923;28;48201;-71
2022/03/19 04:03:48;;;;;;;;;16.00;13.00;;;;;8.75;42.92;102965.88;4980716;28;45458;-71
2022/03/19 04:06:14;;;;;;;;;22.00;20.00;;;;;8.79;43.31;102970.09;5000304;28;45534;-70
2022/03/19 04:08:40;;;;;;;;;17.67;15.00;;;;;8.80;43.28;102969.16;4998712;28;45388;-71
2022/03/19 04:11:05;;;;;;;;;17.33;16.33;;;;;8.65;43.24;102954.03;4980491;28;48406;-71
2022/03/19 04:13:30;;;;;;;;;16.00;14.00;;;;;8.53;43.39;102941.38;4980508;28;45701;-70
2022/03/19 04:15:56;;;;;;;;;20.67;17.33;;;;;8.56;44.09;102948.31;4998609;28;45429;-70
2022/03/19 04:18:21;;;;;;;;;7.00;4.67;;;;;8.23;43.92;102904.84;4998588;28;45491;-69
2022/03/19 04:20:47;;;;;;;;;18.00;15.33;;;;;8.60;44.10;102956.03;4998091;28;47293;-69
2022/03/19 04:23:12;;;;;;;;;19.67;15.67;;;;;8.49;43.98;102939.81;4980275;28;45258;-70
2022/03/19 04:25:37;;;;;;;;;13.00;9.00;;;;;8.60;44.28;102966.66;4998305;28;45511;-70
2022/03/19 04:28:03;;;;;;;;;18.00;15.00;;;;;8.57;44.08;102960.63;4980813;28;45511;-69
2022/03/19 04:30:29;;;;;;;;;17.00;16.00;;;;;8.35;44.28;102923.75;4980255;28;45841;-71
2022/03/19 04:32:58;;;;;;;;;13.33;12.67;;;;;8.56;44.62;102970.38;4998145;28;45435;-71
2022/03/19 04:38:11;;;;;;;;;14.67;12.33;;;;;8.42;45.30;102967.59;5009741;28;45385;-71
2022/03/19 04:40:38;;;;;;;;;18.33;17.33;;;;;8.26;45.61;102948.03;5017391;28;45787;-71
2022/03/19 04:43:04;;;;;;;;;15.67;12.67;;;;;8.28;45.92;102956.75;5016572;28;45225;-69
2022/03/19 04:45:30;;;;;;;;;20.33;18.00;;;;;8.18;46.30;102938.66;5018940;28;45217;-70
2022/03/19 04:47:56;;;;;;;;;12.00;10.33;;;;;8.29;46.01;102959.34;5000579;28;45459;-70
2022/03/19 04:50:22;;;;;;;;;20.33;18.00;;;;;8.30;46.24;102941.63;4999670;28;48466;-69
2022/03/19 04:52:50;;;;;;;;;25.00;23.67;;;;;8.26;46.10;102933.00;5017364;28;45403;-70
2022/03/19 04:55:16;;;;;;;;;19.67;18.00;;;;;8.18;46.23;102925.41;5017578;28;45341;-69
2022/03/19 04:57:42;;;;;;;;;24.33;21.00;;;;;8.32;46.04;102945.94;5017547;28;45162;-70
2022/03/19 05:00:10;;;;;;;;;25.00;19.33;;;;;8.24;46.15;102946.31;5017207;28;46478;-70
2022/03/19 05:02:36;;;;;;;;;23.00;21.00;;;;;8.37;46.21;102953.69;4999491;28;46639;-70
2022/03/19 05:05:02;;;;;;;;;18.00;17.67;;;;;8.34;46.42;102946.75;5017231;28;45508;-70
2022/03/19 05:07:28;;;;;;;;;23.33;20.00;;;;;8.30;46.39;102933.69;4999504;28;45565;-70
2022/03/19 05:12:40;;;;;;;;;31.67;28.00;;;;;8.33;46.89;102929.09;5017423;28;45341;-70
2022/03/19 05:15:10;;;;;;;;;30.00;22.67;;;;;8.37;47.08;102946.59;5017035;28;45537;-71
2022/03/19 05:17:36;;;;;;;;;26.00;22.33;;;;;8.38;47.23;102953.59;5017172;28;45611;-69
2022/03/19 05:20:02;;;;;;;;;28.67;25.67;;;;;8.26;47.25;102933.00;4998862;28;47604;-70
2022/03/19 05:22:29;;;;;;;;;24.00;22.67;;;;;8.32;46.94;102942.41;5016761;28;45591;-70
2022/03/19 05:24:56;;;;;;;;;23.33;21.00;;;;;8.33;47.05;102945.00;5016957;28;45379;-69
2022/03/19 05:27:24;;;;;;;;;28.00;20.33;;;;;8.39;47.00;102954.47;5017204;28;45238;-70
2022/03/19 05:29:50;;;;;;;;;27.67;23.67;;;;;7.81;47.12;102843.41;5017116;28;45534;-70
2022/03/19 05:32:16;;;;;;;;;31.00;27.33;;;;;8.37;47.32;102941.28;5016788;28;45245;-68
2022/03/19 05:34:42;;;;;;;;;29.33;27.00;;;;;8.44;47.80;102969.22;5016950;28;45505;-71
2022/03/19 05:37:09;;;;;;;;;25.00;25.00;;;;;8.32;48.32;102947.72;5006720;28;45357;-73
2022/03/19 05:39:34;;;;;;;;;27.00;24.00;;;;;8.37;48.32;102956.31;4996748;28;45775;-69
2022/03/19 05:42:00;;;;;;;;;33.33;28.67;;;;;8.19;48.56;102950.09;4996772;28;45611;-70
2022/03/19 05:44:25;;;;;;;;;29.00;27.67;;;;;8.24;48.76;102962.22;4979052;28;45603;-70
2022/03/19 05:46:51;;;;;;;;;28.33;26.67;;;;;8.18;49.04;102957.19;4997276;28;45166;-70
2022/03/19 05:49:17;;;;;;;;;27.33;25.33;;;;;8.09;49.29;102941.75;4997013;28;45601;-70
2022/03/19 05:51:42;;;;;;;;;27.33;27.33;;;;;7.81;49.30;102899.00;4995383;28;46197;-71
2022/03/19 05:54:09;;;;;;;;;36.67;32.33;;;;;8.09;49.35;102952.34;4998856;28;45452;-70
2022/03/19 05:56:35;;;;;;;;;37.33;31.00;;;;;8.09;49.85;102948.84;5000576;28;45360;-69
2022/03/19 05:59:00;;;;;;;;;38.00;35.00;;;;;8.00;50.60;102942.19;4999788;28;46615;-71
2022/03/19 06:01:26;;;;;;;;;31.67;25.67;;;;;8.15;50.11;102961.78;4982451;28;45405;-70
2022/03/19 06:03:56;;;;;;;;;36.67;31.33;;;;;8.06;50.63;102965.75;4982628;28;45415;-71
2022/03/19 06:06:23;;;;;;;;;30.00;26.33;;;;;8.05;50.36;102953.44;5007438;28;45370;-70
2022/03/19 06:08:48;;;;;;;;;29.50;26.00;;;;;7.51;50.79;102875.69;5019816;28;46678;-70
2022/03/19 06:11:13;;;;;;;;;45.00;35.50;;;;;7.86;50.58;102939.34;4991837;28;45285;-70
2022/03/19 06:13:39;;;;;;;;;27.00;25.00;;;;;7.76;51.09;102930.13;5000221;28;45255;-69
2022/03/19 06:16:05;;;;;;;;;38.75;35.00;;;;;7.87;51.31;102951.66;5000462;28;45658;-70
2022/03/19 06:18:30;;;;;;;;;41.00;33.25;;;;;7.78;51.64;102944.13;4982131;28;47862;-70
2022/03/19 06:20:56;;;;;;;;;34.00;29.33;;;;;7.88;50.97;102941.00;4999693;28;45519;-70
2022/03/19 06:23:22;;;;;;;;;43.25;34.00;;;;;8.07;51.00;102959.53;4982294;28;45460;-69
2022/03/19 06:25:48;;;;;;;;;35.33;32.67;;;;;8.06;50.65;102941.91;4982819;28;45423;-70
2022/03/19 06:28:14;;;;;;;;;43.25;34.50;;;;;7.73;50.26;102875.50;4981897;28;46513;-68
2022/03/19 06:30:39;;;;;;;;;40.75;32.00;;;;;7.63;50.87;102853.94;4982132;28;45460;-70
2022/03/19 06:33:05;;;;;;;;;43.25;36.25;;;;;8.29;50.29;102950.53;4999977;28;45811;-70
2022/03/19 06:38:16;;;;;;;;;37.25;32.25;;;;;8.28;49.42;102927.59;5014515;28;45534;-69
2022/03/19 06:40:41;;;;;;;;;41.00;31.50;;;;;8.58;50.16;102962.34;5019479;28;45598;-71
2022/03/19 06:43:07;;;;;;;;;43.50;36.75;;;;;8.61;50.13;102970.16;5019727;28;45386;-70
2022/03/19 06:45:32;;;;;;;;;48.25;37.00;;;;;8.56;50.15;102959.78;5019708;28;45574;-72
2022/03/19 06:47:57;;;;;;;;;42.00;34.00;;;;;8.19;50.17;102890.00;5001380;28;46775;-69
2022/03/19 06:50:23;;;;;;;;;47.00;37.25;;;;;8.54;50.00;102959.00;5019418;28;45260;-71
2022/03/19 06:52:48;;;;;;;;;40.00;34.25;;;;;8.63;50.01;102947.09;5001545;28;45296;-70
2022/03/19 06:55:14;;;;;;;;;48.50;38.75;;;;;8.79;50.09;102970.09;5001702;28;45376;-70
2022/03/19 06:57:39;;;;;;;;;47.50;38.00;;;;;8.78;50.27;102970.16;5001090;28;47532;-72
2022/03/19 07:00:05;;;;;;;;;50.75;39.75;;;;;8.73;50.23;102953.63;5001256;28;45626;-70
2022/03/19 07:02:31;;;;;;;;;53.50;40.25;;;;;8.91;49.98;102970.41;5019212;28;45556;-68
2022/03/19 07:04:56;;;;;;;;;51.00;38.75;;;;;8.94;49.79;102947.22;5018393;28;45308;-71
2022/03/19 07:10:46;;;;;;;;;52.00;42.75;;;;;8.99;50.04;102952.28;4960323;28;45479;-73
2022/03/19 07:13:32;;;;;;;;;53.25;41.75;;;;;9.10;50.06;102963.22;4981536;28;45502;-70
2022/03/19 07:15:58;;;;;;;;;49.00;40.00;;;;;8.93;49.87;102921.63;4997452;28;45396;-71
2022/03/19 07:18:24;;;;;;;;;54.75;41.75;;;;;8.75;49.70;102851.84;4997292;28;48003;-70
2022/03/19 07:20:50;;;;;;;;;49.25;41.25;;;;;9.45;49.36;102924.19;4998816;28;45516;-70
2022/03/19 07:23:16;;;;;;;;;51.75;41.00;;;;;10.38;47.69;102934.00;4998940;28;45341;-69
2022/03/19 07:25:43;;;;;;;;;56.00;44.00;;;;;11.41;45.01;102948.16;4998979;28;45451;-73
2022/03/19 07:28:17;;;;;;;;;53.50;42.50;;;;;12.26;43.28;102961.38;4981345;28;48152;-70
2022/03/19 07:30:43;;;;;;;;;56.75;44.25;;;;;13.05;41.64;102949.81;4981007;28;45869;-69
2022/03/19 07:33:09;;;;;;;;;54.00;43.50;;;;;13.30;40.27;102919.59;4998761;28;45464;-73
2022/03/19 07:35:34;;;;;;;;;55.50;44.75;;;;;13.62;39.79;102934.19;4998976;28;45568;-71
2022/03/19 07:38:02;;;;;;;;;58.00;44.50;;;;;13.77;39.09;102891.25;4980710;28;48456;-71
2022/03/19 07:43:13;;;;;;;;;58.00;45.00;;;;;14.89;37.13;102946.97;4998487;28;45411;-72
2022/03/19 07:45:40;;;;;;;;;55.25;43.50;;;;;15.38;36.90;102950.31;4998721;28;45366;-71
2022/03/19 07:48:06;;;;;;;;;49.50;40.50;;;;;15.76;35.75;102945.44;4998297;28;45624;-72
2022/03/19 07:50:31;;;;;;;;;58.50;45.75;;;;;16.18;34.91;102939.38;4983968;28;45386;-71
2022/03/19 07:53:07;;;;;;;;;59.00;47.00;;;;;16.38;34.30;102941.25;5018166;28;45179;-71
2022/03/19 07:55:33;;;;;;;;;59.25;45.50;;;;;16.93;33.29;102941.97;5001030;28;45525;-70
2022/03/19 07:57:59;;;;;;;;;59.50;48.50;;;;;17.14;33.22;102944.63;5000057;28;46841;-70
2022/03/19 08:00:25;;;;;;;;;64.50;49.00;;;;;17.59;32.11;102939.72;5016534;28;46064;-71
2022/03/19 08:02:51;;;;;;;;;58.00;47.75;;;;;17.38;32.11;102898.63;5000172;28;45501;-70
2022/03/19 08:05:17;;;;;;;;;59.75;47.25;;;;;17.84;31.93;102925.00;5016761;28;45463;-71
2022/03/19 08:07:43;;;;;;;;;59.50;46.00;;;;;17.99;31.49;102920.88;5017867;28;45346;-71
2022/03/19 08:10:09;;;;;;;;;56.50;44.25;;;;;17.84;31.72;102938.44;5018069;28;45526;-70
2022/03/19 08:12:40;;;;;;;;;49.25;41.00;;;;;18.02;31.55;102936.78;4999994;28;45489;-68
2022/03/19 08:15:07;;;;;;;;;53.67;41.67;;;;;18.09;31.58;102931.69;5018361;28;45520;-71
2022/03/19 08:17:37;;;;;;;;;55.25;43.50;;;;;18.42;30.79;102936.66;5017073;28;46195;-71
2022/03/19 08:20:04;;;;;;;;;54.75;45.75;;;;;17.78;31.65;102877.94;5017839;28;45562;-70
2022/03/19 08:22:30;;;;;;;;;50.50;42.25;;;;;17.88;31.80;102919.19;5017790;28;45331;-72
2022/03/19 08:24:55;;;;;;;;;58.00;45.50;;;;;18.16;31.61;102925.59;5009547;28;45166;-70
2022/03/19 08:27:23;;;;;;;;;54.75;44.25;;;;;18.30;31.78;102932.41;5016797;28;45475;-69
2022/03/19 08:29:48;;;;;;;;;61.50;48.50;;;;;18.79;30.46;102911.69;5016152;28;45964;-69
2022/03/19 08:32:14;;;;;;;;;57.50;48.00;;;;;18.92;30.47;102923.00;4999513;28;45391;-70
2022/03/19 08:34:39;;;;;;;;;58.00;48.00;;;;;19.18;30.33;102925.03;4999886;28;45309;-70
2022/03/19 08:37:05;;;;;;;;;63.75;47.25;;;;;18.95;30.59;102890.34;5017302;28;46486;-71
2022/03/19 08:42:15;;;;;;;;;57.25;48.25;;;;;18.86;30.77;102917.34;5017601;28;45478;-70
2022/03/19 08:44:40;;;;;;;;;61.50;48.50;;;;;18.48;30.92;102887.59;5016429;28;45638;-70
2022/03/19 08:47:06;;;;;;;;;60.75;48.50;;;;;18.37;31.20;102895.81;5018468;28;45726;-71
2022/03/19 08:49:31;;;;;;;;;52.00;42.75;;;;;18.09;31.27;102896.69;5017831;28;45404;-70
2022/03/19 08:51:57;;;;;;;;;55.50;44.75;;;;;18.23;31.68;102886.34;5017379;28;45559;-72
2022/03/19 08:54:22;;;;;;;;;54.00;45.00;;;;;18.85;31.25;102911.13;5016955;28;45219;-71
2022/03/19 08:56:50;;;;;;;;;62.25;49.75;;;;;19.15;30.31;102888.44;5015460;28;48757;-71
2022/03/19 08:59:17;;;;;;;;;61.75;45.50;;;;;19.88;29.98;102910.09;4999225;28;45236;-70
2022/03/19 09:01:44;;;;;;;;;57.25;46.75;;;;;20.35;29.11;102889.94;4999176;28;45493;-72
2022/03/19 09:04:11;;;;;;;;;59.75;48.50;;;;;20.63;27.66;102906.94;5017181;28;45625;-70
2022/03/19 09:06:38;;;;;;;;;61.75;48.50;;;;;20.85;27.51;102902.03;4998928;28;47335;-71
2022/03/19 09:09:04;;;;;;;;;54.25;43.50;;;;;20.63;27.08;102887.19;4998907;28;45270;-72
2022/03/19 09:11:32;;;;;;;;;60.00;49.75;;;;;20.29;27.71;102885.19;4998909;28;45371;-70
2022/03/19 09:13:57;;;;;;;;;57.00;46.75;;;;;20.48;27.98;102896.84;4999088;28;45551;-70
2022/03/19 09:16:24;;;;;;;;;62.33;50.00;;;;;20.11;27.64;102911.34;4998952;28;47603;-73
2022/03/19 09:18:50;;;;;;;;;62.50;49.75;;;;;20.05;28.26;102914.69;5016635;28;45233;-70
2022/03/19 09:21:17;;;;;;;;;66.00;51.75;;;;;19.76;28.32;102831.19;5016615;28;45409;-70
2022/03/19 09:23:45;;;;;;;;;60.00;48.50;;;;;19.98;27.61;102873.06;5016680;28;45330;-70
2022/03/19 09:26:11;;;;;;;;;67.50;51.00;;;;;19.74;28.02;102904.22;5015855;28;46367;-70
2022/03/19 09:28:37;;;;;;;;;57.00;45.50;;;;;19.59;28.35;102894.91;5015883;28;45306;-71
2022/03/19 09:31:03;;;;;;;;;63.00;51.25;;;;;19.25;28.51;102883.03;5016603;28;45337;-73
2022/03/19 09:33:28;;;;;;;;;54.25;45.25;;;;;19.74;28.28;102893.41;4998403;28;45679;-72
2022/03/19 09:35:53;;;;;;;;;61.50;48.50;;;;;20.72;26.83;102898.88;4998612;28;47878;-73
2022/03/19 09:38:19;;;;;;;;;55.75;43.75;;;;;21.63;25.48;102877.56;5016398;28;45408;-70
2022/03/19 09:40:45;;;;;;;;;60.00;44.75;;;;;22.04;25.18;102827.03;4998854;28;45491;-69
2022/03/19 09:43:11;;;;;;;;;63.00;47.25;;;;;22.72;23.92;102868.13;5016563;28;45425;-72
2022/03/19 09:45:38;;;;;;;;;59.75;48.25;;;;;22.97;23.19;102876.25;5016968;28;46333;-70
2022/03/19 09:48:04;;;;;;;;;60.00;46.25;;;;;23.97;22.35;102861.84;5016583;28;45273;-72
2022/03/19 09:50:30;;;;;;;;;60.25;48.25;;;;;24.61;22.02;102853.31;4998455;28;45262;-72
2022/03/19 09:52:57;;;;;;;;;57.50;47.00;;;;;24.74;21.36;102847.22;5015010;28;45617;-71
2022/03/19 09:55:27;;;;;;;;;55.00;43.50;;;;;25.12;21.21;102862.47;5016117;28;45565;-72
2022/03/19 09:57:55;;;;;;;;;54.75;44.25;;;;;24.68;21.21;102862.44;4998069;28;45338;-72
2022/03/19 10:00:22;;;;;;;;;53.50;43.75;;;;;24.53;21.87;102848.81;5015962;28;45306;-70
2022/03/19 10:02:54;;;;;;;;;51.75;41.75;;;;;23.48;22.57;102866.72;5016423;28;45367;-72
2022/03/19 10:10:54;;;;;;;;;59.75;46.25;;;;;21.99;24.51;102857.28;5014853;28;45483;-71
2022/03/19 10:13:19;;;;;;;;;54.75;45.25;;;;;21.41;24.56;102831.13;5015125;28;45434;-71
2022/03/19 10:15:46;;;;;;;;;55.25;45.00;;;;;21.02;25.29;102868.63;5016186;28;45910;-72
2022/03/19 10:18:11;;;;;;;;;58.00;46.00;;;;;20.34;26.33;102844.19;5015881;28;45372;-70
2022/03/19 10:20:37;;;;;;;;;56.00;45.25;;;;;20.17;26.30;102853.16;5015960;28;45522;-70
2022/03/19 10:23:04;;;;;;;;;54.33;44.33;;;;;19.44;27.50;102854.09;5016451;28;45476;-70
2022/03/19 10:25:31;;;;;;;;;49.75;40.25;;;;;18.46;28.56;102856.41;5016100;28;45821;-70
2022/03/19 10:28:01;;;;;;;;;52.00;42.75;;;;;17.90;29.61;102855.31;5015817;28;45274;-70
2022/03/19 10:30:35;;;;;;;;;56.00;45.50;;;;;17.59;30.06;102848.28;5016156;28;45317;-70
2022/03/19 10:33:00;;;;;;;;;59.00;45.75;;;;;17.18;30.33;102834.03;5015830;28;45601;-69
2022/03/19 10:35:38;;;;;;;;;57.00;47.25;;;;;16.83;31.42;102841.69;5015825;28;45903;-71
2022/03/19 10:38:23;;;;;;;;;58.00;48.25;;;;;16.33;31.97;102869.16;5014480;28;46647;-70
2022/03/19 10:40:53;;;;;;;;;56.75;47.50;;;;;16.01;32.59;102844.16;5018438;28;45512;-72
2022/03/19 10:43:22;;;;;;;;;55.50;47.00;;;;;15.99;32.45;102836.25;5019101;28;45522;-71
2022/03/19 10:45:49;;;;;;;;;58.50;46.00;;;;;15.69;33.07;102828.09;5019070;28;46160;-69
2022/03/19 10:48:19;;;;;;;;;63.50;49.00;;;;;14.29;33.47;102631.38;5019237;28;45241;-70
2022/03/19 10:50:45;;;;;;;;;62.00;50.50;;;;;15.19;33.62;102844.59;5019162;28;45292;-72
2022/03/19 10:53:10;;;;;;;;;59.00;48.25;;;;;15.02;33.78;102817.47;5018959;28;45500;-72
2022/03/19 10:55:36;;;;;;;;;55.50;45.00;;;;;15.11;33.81;102836.31;5017379;28;45911;-71
2022/03/19 10:58:02;;;;;;;;;58.50;45.25;;;;;14.80;33.88;102772.75;5001082;28;45350;-71
2022/03/19 11:00:28;;;;;;;;;62.25;49.75;;;;;15.00;33.79;102765.81;5019122;28;45203;-73
2022/03/19 11:02:57;;;;;;;;;69.00;54.50;;;;;14.87;33.40;102777.53;5019161;28;45491;-72
2022/03/19 11:05:24;;;;;;;;;54.00;45.25;;;;;15.16;33.85;102809.16;5000654;28;45383;-72
2022/03/19 11:07:52;;;;;;;;;59.25;46.50;;;;;15.33;33.80;102832.75;5018547;28;45460;-70
2022/03/19 11:10:19;;;;;;;;;57.50;46.00;;;;;15.38;33.44;102824.34;5018552;28;45311;-72
2022/03/19 11:12:52;;;;;;;;;62.00;50.25;;;;;15.01;33.47;102768.38;5001112;28;45585;-72
2022/03/19 11:15:20;;;;;;;;;61.00;50.00;;;;;15.10;33.50;102786.38;5018682;28;45479;-70
2022/03/19 11:17:58;;;;;;;;;61.25;48.75;;;;;15.29;32.99;102819.75;5018588;28;45403;-71
2022/03/19 11:20:23;;;;;;;;;58.75;48.75;;;;;14.78;33.05;102738.06;5018673;28;45386;-71
2022/03/19 11:22:59;;;;;;;;;61.75;49.00;;;;;15.18;33.13;102816.09;5019032;28;45471;-70
2022/03/19 11:25:44;;;;;;;;;59.25;47.50;;;;;15.18;33.41;102812.56;5018571;28;45493;-72
2022/03/19 11:28:13;;;;;;;;;49.50;41.75;;;;;14.93;33.20;102759.25;5018302;28;45372;-70
2022/03/19 11:30:45;;;;;;;;;61.75;48.50;;;;;15.00;33.33;102792.59;5000280;28;45191;-70
2022/03/19 11:33:19;;;;;;;;;65.25;47.75;;;;;14.65;33.63;102771.31;5018554;28;45422;-72
2022/03/19 11:35:54;;;;;;;;;61.00;47.25;;;;;14.78;34.01;102794.31;5000201;28;47557;-70
2022/03/19 11:38:25;;;;;;;;;59.00;47.00;;;;;14.87;33.64;102790.06;4999791;28;45651;-73
2022/03/19 11:40:56;;;;;;;;;60.75;48.50;;;;;14.85;33.75;102800.91;4998256;28;45369;-71
2022/03/19 11:43:24;;;;;;;;;69.00;51.25;;;;;14.86;34.10;102789.22;4987710;28;45457;-70